Dart — OUOV2 — position and weather

sailwx.info

Track history (hours):
 
Tides and Currents Weather Stations Pressure Air Temp Water Temp Dewpoint Dewpoint Depression Visibility Wind Speed Wind Dir Waves Ship Positions

Dart

Last reported at 2014-Aug-15 21:25 UTC. Time now 2014-Aug-22 19:43 UTC.
Position N 60°25' E 005°04'.

Length 66 m; draft 4.2 m.

Type: Tanker. MMSI: 219416000.

Date/timePositionNaut miles runAvg speedWind from/ knotsBaromVisibWave heightAir tempDewpointWater temp
2014-Aug-15 21:25N 60°25' E 005°04'9 8.5
2014-Aug-15 20:23N 60°17' E 005°11'50 7.4
2014-Aug-15 13:33N 59°26' E 005°14'6 5.7
2014-Aug-15 12:33N 59°21' E 005°19'8 8.2
2014-Aug-15 11:33N 59°13' E 005°21'8 7.9
2014-Aug-15 10:33N 59°07' E 005°30'8 8.2
2014-Aug-15 09:33N 59°00' E 005°40'0 0.1
2014-Aug-15 08:34N 58°60' E 005°40'0 0.0
2014-Aug-15 07:33N 58°60' E 005°40'0 0.0
2014-Aug-15 06:33N 58°60' E 005°40'0 0.0
2014-Aug-15 05:34N 58°60' E 005°40'0 0.0
2014-Aug-15 04:33N 58°60' E 005°40'0 0.0
2014-Aug-15 03:34N 58°60' E 005°40'0 0.0
2014-Aug-15 02:33N 58°60' E 005°40'0 0.0
2014-Aug-15 01:33N 58°60' E 005°40'0 0.0
2014-Aug-15 00:33N 58°60' E 005°40'0 0.0
2014-Aug-14 23:33N 58°60' E 005°40'0 0.0
2014-Aug-14 22:33N 58°60' E 005°40'0 0.0
2014-Aug-14 21:33N 58°60' E 005°40'0 0.0
2014-Aug-14 20:34N 58°60' E 005°40'0 0.0
2014-Aug-14 19:33N 58°60' E 005°40'0 0.0
2014-Aug-14 18:34N 58°60' E 005°40'0 0.0
2014-Aug-14 17:34N 58°60' E 005°40'1 0.8
2014-Aug-14 16:33N 59°01' E 005°40'1010.3
2014-Aug-14 15:33N 59°08' E 005°25'1010.1
2014-Aug-14 14:33N 59°17' E 005°20'7 6.3
2014-Aug-14 13:31N 59°24' E 005°16'1 1.0
2014-Aug-14 12:33N 59°24' E 005°15'1 0.5
2014-Aug-14 11:31N 59°25' E 005°14'0 0.0
2014-Aug-14 10:31N 59°25' E 005°14'0 0.0
2014-Aug-14 09:31N 59°25' E 005°14'0 0.0
2014-Aug-14 08:31N 59°25' E 005°14'2 1.9
2014-Aug-14 07:33N 59°26' E 005°13'49 9.1
2014-Aug-14 02:11N 60°15' E 005°09'9 9.8
2014-Aug-14 01:19N 60°24' E 005°08'310 8.7
2014-Aug-12 13:28N 64°47' E 011°05'9 9.6
2014-Aug-12 12:33N 64°54' E 011°20'10 9.8
2014-Aug-12 11:33N 65°00' E 011°37'83 4.6
2014-Aug-11 17:24N 66°17' E 012°56'9 9.7
2014-Aug-11 16:28N 66°26' E 012°59'18 9.3
2014-Aug-11 14:33N 66°43' E 013°11'27 9.0
2014-Aug-11 11:33N 67°04' E 013°54'9 9.4
2014-Aug-11 10:33N 67°12' E 014°06'10 9.8
2014-Aug-11 09:33N 67°20' E 014°21'9 8.7
2014-Aug-11 08:33N 67°29' E 014°23'12 9.3
2014-Aug-11 07:17N 67°40' E 014°18'6 8.7
2014-Aug-11 06:33N 67°47' E 014°22'246 8.8
2014-Aug-10 02:33N 70°31' E 022°58'10 9.3
2014-Aug-10 01:28N 70°38' E 023°20'  
2014-Aug-07 17:30N 70°38' E 023°39'0 0.1
2014-Aug-07 14:27N 70°37' E 023°39'4 3.9
2014-Aug-07 13:33N 70°34' E 023°38'5 2.4
2014-Aug-07 11:28N 70°39' E 023°34'0 0.1
2014-Aug-07 10:19N 70°39' E 023°34'3 3.1
2014-Aug-07 09:18N 70°38' E 023°25'256 9.6
2014-Aug-06 06:34N 67°48' E 014°25'1110.5
2014-Aug-06 05:31N 67°38' E 014°18'1010.4
2014-Aug-06 04:34N 67°28' E 014°24'10 9.7
2014-Aug-06 03:33N 67°19' E 014°18'1110.5
2014-Aug-06 02:33N 67°10' E 014°03'1110.4
2014-Aug-06 01:31N 67°01' E 013°47'9 9.3
2014-Aug-06 00:32N 66°55' E 013°29'1410.1
2014-Aug-05 23:10N 66°43' E 013°11'710.8
2014-Aug-05 22:32N 66°37' E 013°04'  
Track history (hours):
 
Tides and Currents Weather Stations Pressure Air Temp Water Temp Dewpoint Dewpoint Depression Visibility Wind Speed Wind Dir Waves Ship Positions

Dart

Last reported at 2014-Aug-15 21:25 UTC. Time now 2014-Aug-22 19:43 UTC.
Position N 60°25' E 005°04'.

Length 66 m; draft 4.2 m.

Type: Tanker. MMSI: 219416000.

Date/timePositionNaut miles runAvg speedWind from/ knotsBaromVisibWave heightAir tempDewpointWater temp
2014-Aug-15 21:25N 60°25' E 005°04'9 8.5
2014-Aug-15 20:23N 60°17' E 005°11'50 7.4
2014-Aug-15 13:33N 59°26' E 005°14'6 5.7
2014-Aug-15 12:33N 59°21' E 005°19'8 8.2
2014-Aug-15 11:33N 59°13' E 005°21'8 7.9
2014-Aug-15 10:33N 59°07' E 005°30'8 8.2
2014-Aug-15 09:33N 59°00' E 005°40'0 0.1
2014-Aug-15 08:34N 58°60' E 005°40'0 0.0
2014-Aug-15 07:33N 58°60' E 005°40'0 0.0
2014-Aug-15 06:33N 58°60' E 005°40'0 0.0
2014-Aug-15 05:34N 58°60' E 005°40'0 0.0
2014-Aug-15 04:33N 58°60' E 005°40'0 0.0
2014-Aug-15 03:34N 58°60' E 005°40'0 0.0
2014-Aug-15 02:33N 58°60' E 005°40'0 0.0
2014-Aug-15 01:33N 58°60' E 005°40'0 0.0
2014-Aug-15 00:33N 58°60' E 005°40'0 0.0
2014-Aug-14 23:33N 58°60' E 005°40'0 0.0
2014-Aug-14 22:33N 58°60' E 005°40'0 0.0
2014-Aug-14 21:33N 58°60' E 005°40'0 0.0
2014-Aug-14 20:34N 58°60' E 005°40'0 0.0
2014-Aug-14 19:33N 58°60' E 005°40'0 0.0
2014-Aug-14 18:34N 58°60' E 005°40'0 0.0
2014-Aug-14 17:34N 58°60' E 005°40'1 0.8
2014-Aug-14 16:33N 59°01' E 005°40'1010.3
2014-Aug-14 15:33N 59°08' E 005°25'1010.1
2014-Aug-14 14:33N 59°17' E 005°20'7 6.3
2014-Aug-14 13:31N 59°24' E 005°16'1 1.0
2014-Aug-14 12:33N 59°24' E 005°15'1 0.5
2014-Aug-14 11:31N 59°25' E 005°14'0 0.0
2014-Aug-14 10:31N 59°25' E 005°14'0 0.0
2014-Aug-14 09:31N 59°25' E 005°14'0 0.0
2014-Aug-14 08:31N 59°25' E 005°14'2 1.9
2014-Aug-14 07:33N 59°26' E 005°13'49 9.1
2014-Aug-14 02:11N 60°15' E 005°09'9 9.8
2014-Aug-14 01:19N 60°24' E 005°08'310 8.7
2014-Aug-12 13:28N 64°47' E 011°05'9 9.6
2014-Aug-12 12:33N 64°54' E 011°20'10 9.8
2014-Aug-12 11:33N 65°00' E 011°37'83 4.6
2014-Aug-11 17:24N 66°17' E 012°56'9 9.7
2014-Aug-11 16:28N 66°26' E 012°59'18 9.3
2014-Aug-11 14:33N 66°43' E 013°11'27 9.0
2014-Aug-11 11:33N 67°04' E 013°54'9 9.4
2014-Aug-11 10:33N 67°12' E 014°06'10 9.8
2014-Aug-11 09:33N 67°20' E 014°21'9 8.7
2014-Aug-11 08:33N 67°29' E 014°23'12 9.3
2014-Aug-11 07:17N 67°40' E 014°18'6 8.7
2014-Aug-11 06:33N 67°47' E 014°22'246 8.8
2014-Aug-10 02:33N 70°31' E 022°58'10 9.3
2014-Aug-10 01:28N 70°38' E 023°20'  
2014-Aug-07 17:30N 70°38' E 023°39'0 0.1
2014-Aug-07 14:27N 70°37' E 023°39'4 3.9
2014-Aug-07 13:33N 70°34' E 023°38'5 2.4
2014-Aug-07 11:28N 70°39' E 023°34'0 0.1
2014-Aug-07 10:19N 70°39' E 023°34'3 3.1
2014-Aug-07 09:18N 70°38' E 023°25'256 9.6
2014-Aug-06 06:34N 67°48' E 014°25'1110.5
2014-Aug-06 05:31N 67°38' E 014°18'1010.4
2014-Aug-06 04:34N 67°28' E 014°24'10 9.7
2014-Aug-06 03:33N 67°19' E 014°18'1110.5
2014-Aug-06 02:33N 67°10' E 014°03'1110.4
2014-Aug-06 01:31N 67°01' E 013°47'9 9.3
2014-Aug-06 00:32N 66°55' E 013°29'1410.1
2014-Aug-05 23:10N 66°43' E 013°11'710.8
2014-Aug-05 22:32N 66°37' E 013°04'  

Dump ship's entire track history